»·PEaware :: N1BF KGPI-KPDX

N1BF :: KGPI-KPDX

FLIGHT INFORMATION

Flight Status: Arrived
Operator: Privately registered:
United States
More flights under this callsign
Pilot: Ben F. (2808)
Aircraft: BOEING 737-200
(B732)
More flights by this aircraft type
Origin: KGPI Glacier Park Intl
United States
Destination: KPDX Portland Intl
United States
More flights between these airports :: More routes between these airports
Route: SKOTT2 SKOTT MLP J136 BTG
File this flight plan on PilotEdge
Remarks:
Altitude:
(Current/Filed)
32,000ft
Speed:
(Current/Filed)
423kts
Departed: 11-Aug-19 07:33 AM
Arrived: 11-Aug-19 08:44 AM
Distance/Time
Traveled:
378nm/1:11
Distance/Time
To Go:
Arrived

Flight Plot

Page will automatically refresh every two minutes.

Flight plan parsing failed; only flown route is shown


Map Options




Map Legend


Flown Route
Filed Route
Departure Airport
Arrival Airport
Navaid (VOR, NDB)
Fix

Horizontal Profiles

Position Reports

Time Latitude Longitude Heading Altitude Ground
Speed
11-Aug-19 07:03 48.309998 -114.251906 268 2986ft 0kts
11-Aug-19 07:04 48.309998 -114.251906 268 2986ft 0kts
11-Aug-19 07:05 48.309998 -114.251906 268 2986ft 0kts
11-Aug-19 07:06 48.309998 -114.251906 268 2986ft 0kts
11-Aug-19 07:07 48.309998 -114.251906 268 2986ft 0kts
11-Aug-19 07:08 48.309998 -114.251906 268 2986ft 0kts
11-Aug-19 07:09 48.309998 -114.251906 268 2986ft 0kts
11-Aug-19 07:10 48.309998 -114.251906 268 2986ft 0kts
11-Aug-19 07:11 48.309998 -114.251906 268 2986ft 0kts
11-Aug-19 07:12 48.309998 -114.251906 268 2986ft 0kts
11-Aug-19 07:13 48.309998 -114.251906 268 2986ft 0kts
11-Aug-19 07:14 48.309998 -114.251906 268 2986ft 0kts
11-Aug-19 07:15 48.309998 -114.251906 268 2986ft 0kts
11-Aug-19 07:16 48.309998 -114.251906 268 2986ft 0kts
11-Aug-19 07:17 48.309998 -114.251906 268 2986ft 0kts
11-Aug-19 07:18 48.309998 -114.251906 268 2986ft 0kts
11-Aug-19 07:19 48.309998 -114.251906 268 2986ft 0kts
11-Aug-19 07:20 48.309998 -114.251906 268 2986ft 0kts
11-Aug-19 07:22 48.309998 -114.251906 268 2986ft 0kts
11-Aug-19 07:23 48.309998 -114.251906 268 2986ft 0kts
11-Aug-19 07:24 48.309998 -114.251906 268 2986ft 0kts
11-Aug-19 07:25 48.309998 -114.251906 268 2986ft 0kts
11-Aug-19 07:26 48.310224 -114.252549 286 2986ft 0kts
11-Aug-19 07:27 48.310224 -114.252549 286 2986ft 0kts
11-Aug-19 07:28 48.310282 -114.252839 287 2986ft 8kts
11-Aug-19 07:29 48.306287 -114.257822 215 2986ft 28kts
11-Aug-19 07:30 48.299642 -114.264710 213 2986ft 27kts
11-Aug-19 07:31 48.298450 -114.266099 244 2986ft 5kts
11-Aug-19 07:32 48.298428 -114.266434 278 2986ft 7kts
11-Aug-19 07:33 48.301566 -114.264788 35 2986ft 75kts
11-Aug-19 07:34 48.337592 -114.234471 347 4815ft 164kts
11-Aug-19 07:35 48.327738 -114.282854 172 6821ft 211kts
11-Aug-19 07:36 48.275650 -114.232721 161 9599ft 233kts
11-Aug-19 07:37 48.199113 -114.238019 194 11205ft 311kts
11-Aug-19 07:38 48.125635 -114.307440 231 14281ft 322kts
11-Aug-19 07:39 48.069382 -114.419436 232 16941ft 332kts
11-Aug-19 07:40 48.013017 -114.534304 232 19236ft 343kts
11-Aug-19 07:41 47.955718 -114.654479 231 21147ft 356kts
11-Aug-19 07:41 47.905202 -114.757836 230 22607ft 366kts
11-Aug-19 07:43 47.832463 -114.905364 230 24472ft 379kts
11-Aug-19 07:44 47.768148 -115.035151 230 25842ft 390kts
11-Aug-19 07:44 47.712798 -115.146323 230 26911ft 398kts
11-Aug-19 07:46 47.633712 -115.304382 229 28266ft 407kts
11-Aug-19 07:46 47.575999 -115.419179 229 29206ft 411kts
11-Aug-19 07:47 47.507628 -115.554519 229 30566ft 406kts
11-Aug-19 07:48 47.465834 -115.707991 265 31646ft 425kts
11-Aug-19 07:49 47.474151 -115.885349 270 32139ft 440kts
11-Aug-19 07:50 47.485366 -116.070137 271 32104ft 446kts
11-Aug-19 07:51 47.496360 -116.254773 271 32077ft 444kts
11-Aug-19 07:52 47.506989 -116.438888 271 32076ft 444kts
11-Aug-19 07:53 47.517340 -116.623071 271 32065ft 446kts
11-Aug-19 07:54 47.527177 -116.803411 271 32063ft 447kts
11-Aug-19 07:55 47.536957 -116.988186 271 32059ft 448kts
11-Aug-19 07:56 47.546462 -117.173190 272 32053ft 445kts
11-Aug-19 07:57 47.555627 -117.357572 272 32054ft 445kts
11-Aug-19 07:58 47.564524 -117.542394 272 32054ft 446kts
11-Aug-19 07:59 47.539100 -117.716512 244 32056ft 440kts
11-Aug-19 08:00 47.484786 -117.880728 241 32057ft 441kts
11-Aug-19 08:01 47.428029 -118.043342 242 32056ft 441kts
11-Aug-19 08:02 47.371066 -118.205141 242 32054ft 442kts
11-Aug-19 08:03 47.313680 -118.368440 242 32053ft 443kts
11-Aug-19 08:04 47.257163 -118.532139 242 32054ft 443kts
11-Aug-19 08:05 47.202154 -118.690720 242 32054ft 444kts
11-Aug-19 08:06 47.145203 -118.854095 242 32053ft 444kts
11-Aug-19 08:07 47.087820 -119.017691 242 32048ft 445kts
11-Aug-19 08:08 47.030108 -119.181203 242 32045ft 446kts
11-Aug-19 08:09 46.971844 -119.345254 242 32045ft 447kts
11-Aug-19 08:10 46.913358 -119.508944 242 32043ft 446kts
11-Aug-19 08:11 46.858027 -119.662832 242 32048ft 443kts
11-Aug-19 08:12 46.801822 -119.818303 242 32051ft 441kts
11-Aug-19 08:13 46.743860 -119.977676 242 32051ft 438kts
11-Aug-19 08:14 46.686289 -120.135034 242 32061ft 436kts
11-Aug-19 08:15 46.628518 -120.292017 242 32061ft 435kts
11-Aug-19 08:16 46.570873 -120.447828 243 32062ft 434kts
11-Aug-19 08:17 46.513416 -120.603868 243 31182ft 431kts
11-Aug-19 08:18 46.460340 -120.747294 242 29509ft 421kts
11-Aug-19 08:19 46.404913 -120.896308 242 27486ft 409kts
11-Aug-19 08:20 46.350508 -121.041762 242 25414ft 399kts
11-Aug-19 08:21 46.297449 -121.182852 242 23528ft 386kts
11-Aug-19 08:22 46.245901 -121.319253 242 21642ft 375kts
11-Aug-19 08:23 46.195641 -121.451598 242 19821ft 363kts
11-Aug-19 08:24 46.146846 -121.579498 242 18025ft 353kts
11-Aug-19 08:25 46.100849 -121.699518 242 16046ft 344kts
11-Aug-19 08:26 46.054736 -121.819323 241 14031ft 335kts
11-Aug-19 08:27 46.009052 -121.937514 241 12073ft 325kts
11-Aug-19 08:28 45.967786 -122.043732 242 10454ft 282kts
11-Aug-19 08:29 45.929931 -122.140955 242 8954ft 269kts
11-Aug-19 08:30 45.894825 -122.230916 242 7834ft 266kts
11-Aug-19 08:31 45.858525 -122.323555 242 6695ft 262kts
11-Aug-19 08:32 45.823444 -122.415286 243 5567ft 258kts
11-Aug-19 08:33 45.789434 -122.506000 243 4544ft 253kts
11-Aug-19 08:34 45.755021 -122.591457 237 3987ft 230kts
11-Aug-19 08:35 45.719884 -122.657239 232 4005ft 224kts
11-Aug-19 08:36 45.709969 -122.739329 284 4000ft 217kts
11-Aug-19 08:37 45.721917 -122.824092 248 4005ft 212kts
11-Aug-19 08:38 45.676009 -122.821979 110 3583ft 212kts
11-Aug-19 08:39 45.654991 -122.751420 118 2538ft 166kts
11-Aug-19 08:40 45.635807 -122.700990 118 1710ft 136kts
11-Aug-19 08:41 45.617461 -122.653699 118 983ft 135kts
11-Aug-19 08:42 45.599008 -122.606463 117 200ft 132kts
11-Aug-19 08:43 45.587155 -122.576345 137 38ft 9kts
11-Aug-19 08:44 45.585475 -122.577008 209 38ft 0kts
11-Aug-19 08:45 45.585326 -122.578059 298 38ft 0kts
11-Aug-19 08:46 45.585362 -122.578151 298 38ft 0kts
11-Aug-19 08:47 45.585397 -122.578244 298 38ft 0kts
11-Aug-19 08:48 45.585433 -122.578337 298 38ft 0kts
11-Aug-19 08:49 45.585468 -122.578429 298 38ft 0kts
11-Aug-19 08:50 45.585489 -122.578483 298 38ft 0kts
11-Aug-19 08:51 45.585489 -122.578483 298 38ft 0kts
11-Aug-19 08:52 45.585489 -122.578483 298 38ft 0kts
11-Aug-19 08:53 45.585489 -122.578483 298 38ft 0kts

Navigation Log

Ident Type
Flight plan parsing failed, navigation log unavailable